Time;durP1;ratioP1;P1;durP2;ratioP2;P2;SDS_P1;SDS_P2;PMS_P1;PMS_P2;Temp;Humidity;BMP_temperature;BMP_pressure;BME280_temperature;BME280_humidity;BME280_pressure;Samples;Min_cycle;Max_cycle;Signal;HPM_P1;HPM_P2
2024/03/26 00:00:40;;;;;;;;;10.00;8.67;;;;;12.22;51.58;99080.78;2033019;28;1835669;-75
2024/03/26 00:01:51;;;;;;;;;16.33;12.33;;;;;12.24;51.34;99079.75;1985027;28;3534617;-75
2024/03/26 00:03:02;;;;;;;;;13.33;10.33;;;;;12.24;51.37;99078.88;2027424;28;3514810;-74
2024/03/26 00:04:13;;;;;;;;;10.00;10.00;;;;;12.23;51.29;99074.56;2021968;28;2771200;-75
2024/03/26 00:05:24;;;;;;;;;7.33;6.33;;;;;12.26;51.29;99071.72;2022328;28;2750287;-74
2024/03/26 00:06:35;;;;;;;;;8.75;8.75;;;;;12.23;51.25;99069.28;2035512;28;2731572;-75
2024/03/26 00:07:46;;;;;;;;;8.33;7.67;;;;;12.26;51.22;99071.72;2016328;28;2744157;-75
2024/03/26 00:08:57;;;;;;;;;8.00;8.00;;;;;12.24;51.30;99061.31;2030027;28;2735686;-75
2024/03/26 00:10:08;;;;;;;;;11.00;11.00;;;;;12.26;51.19;99074.34;2003847;28;3498164;-75
2024/03/26 00:11:22;;;;;;;;;8.67;8.67;;;;;12.26;51.51;99064.66;2003148;28;2741929;-74
2024/03/26 00:12:35;;;;;;;;;10.17;8.50;;;;;12.25;51.69;99057.69;2035168;28;2757565;-74
2024/03/26 00:13:49;;;;;;;;;9.17;9.17;;;;;12.28;51.20;99072.47;2007078;28;2725309;-75
2024/03/26 00:14:59;;;;;;;;;11.00;10.00;;;;;12.25;51.33;99067.38;1979107;28;3501282;-75
2024/03/26 00:16:10;;;;;;;;;9.33;8.67;;;;;12.27;51.55;99073.44;2023384;28;2750359;-75
2024/03/26 00:17:21;;;;;;;;;7.67;7.67;;;;;12.28;51.74;99080.38;2024735;28;2729425;-75
2024/03/26 00:18:32;;;;;;;;;7.33;7.33;;;;;12.26;51.94;99074.34;2044353;28;2725281;-75
2024/03/26 00:19:42;;;;;;;;;12.00;10.00;;;;;12.25;52.28;99067.38;1990530;28;3503441;-74
2024/03/26 00:20:53;;;;;;;;;12.00;9.67;;;;;12.25;52.06;99070.03;2028294;28;3501289;-74
2024/03/26 00:22:04;;;;;;;;;10.00;8.67;;;;;12.25;52.04;99067.38;2027183;28;2762799;-75
2024/03/26 00:23:16;;;;;;;;;10.00;10.00;;;;;12.26;52.03;99069.09;2047444;28;1841995;-75
2024/03/26 00:24:27;;;;;;;;;10.00;9.00;;;;;12.27;52.25;99070.78;1985126;28;2767957;-75
2024/03/26 00:25:38;;;;;;;;;9.33;9.00;;;;;12.27;51.97;99084.78;2033477;28;2746158;-75
2024/03/26 00:26:48;;;;;;;;;14.67;11.00;;;;;12.24;51.91;99071.84;1992894;28;3512769;-74
2024/03/26 00:28:00;;;;;;;;;6.75;3.50;;;;;12.27;51.94;99070.78;2020196;28;2739845;-74
2024/03/26 00:29:13;;;;;;;;;10.33;9.17;;;;;12.27;52.42;99076.88;2035170;28;2746193;-74
2024/03/26 00:30:24;;;;;;;;;10.67;9.67;;;;;12.27;52.15;99070.78;1983599;28;3495147;-74
2024/03/26 00:31:35;;;;;;;;;10.00;8.33;;;;;12.27;52.25;99074.25;2025582;28;3479437;-74
2024/03/26 00:32:45;;;;;;;;;9.67;8.67;;;;;12.29;51.77;99070.69;2024285;28;2734688;-74
2024/03/26 00:33:57;;;;;;;;;6.33;6.00;;;;;12.27;51.49;99066.34;2041483;28;2745111;-74
2024/03/26 00:35:10;;;;;;;;;8.33;8.33;;;;;12.27;52.21;99058.44;2014286;28;2731547;-74
2024/03/26 00:36:20;;;;;;;;;11.33;10.00;;;;;12.25;51.82;99067.38;1989966;28;3496097;-75
2024/03/26 00:37:32;;;;;;;;;13.33;8.00;;;;;12.26;52.22;99069.09;2040686;28;1844015;-74
2024/03/26 00:38:45;;;;;;;;;10.17;8.17;;;;;12.29;51.96;99060.13;2019815;28;2760684;-75
2024/03/26 00:39:55;;;;;;;;;10.00;7.67;;;;;12.28;52.19;99056.66;1976566;28;3473189;-74
2024/03/26 00:41:06;;;;;;;;;11.67;9.33;;;;;12.25;51.63;99052.44;2017686;28;2764891;-75
2024/03/26 00:42:17;;;;;;;;;11.00;8.33;;;;;12.26;52.15;99055.91;2014921;28;3480480;-75
2024/03/26 00:43:28;;;;;;;;;14.00;9.00;;;;;12.29;51.97;99061.00;2020812;28;2769526;-74
2024/03/26 00:44:40;;;;;;;;;9.00;9.00;;;;;12.26;51.98;99056.78;2034430;28;2744008;-74
2024/03/26 00:45:50;;;;;;;;;10.33;8.33;;;;;12.27;51.89;99054.97;2029762;28;1833639;-75
2024/03/26 00:47:01;;;;;;;;;11.00;7.33;;;;;12.29;52.07;99054.88;1998970;28;2758570;-74
2024/03/26 00:48:12;;;;;;;;;9.00;7.67;;;;;12.29;51.61;99057.50;2018838;28;3464857;-75
2024/03/26 00:49:23;;;;;;;;;12.00;9.33;;;;;12.29;52.00;99058.34;2047332;28;1854974;-74
2024/03/26 00:50:34;;;;;;;;;13.00;10.33;;;;;12.26;51.77;99051.50;1994475;28;3498177;-74
2024/03/26 00:51:45;;;;;;;;;8.00;8.00;;;;;12.30;52.33;99053.94;2034327;28;2735694;-74
2024/03/26 00:52:55;;;;;;;;;11.00;11.00;;;;;12.30;52.50;99054.75;1984099;28;2786750;-74
2024/03/26 00:54:06;;;;;;;;;11.00;10.00;;;;;12.29;52.17;99058.34;2009517;28;3509593;-75
2024/03/26 00:55:17;;;;;;;;;6.67;6.67;;;;;12.26;51.99;99048.88;2033531;28;2745084;-74
2024/03/26 00:56:29;;;;;;;;;9.00;8.00;;;;;12.26;52.23;99046.22;2035278;28;2742983;-74
2024/03/26 00:57:39;;;;;;;;;12.00;10.00;;;;;12.29;52.06;99058.34;1986000;28;3499224;-74
2024/03/26 00:58:50;;;;;;;;;11.00;9.67;;;;;12.28;52.14;99056.66;2033969;28;3492983;-74
2024/03/26 01:00:02;;;;;;;;;8.00;7.33;;;;;12.27;51.96;99045.28;2042863;28;2737754;-74
2024/03/26 01:01:13;;;;;;;;;12.33;9.00;;;;;12.30;51.88;99049.50;1986070;28;3476278;-74
2024/03/26 01:02:24;;;;;;;;;10.00;8.00;;;;;12.27;52.16;99052.34;2026312;28;3469006;-75
2024/03/26 01:03:35;;;;;;;;;8.67;7.67;;;;;12.29;52.17;99050.44;2042746;28;2722202;-75
2024/03/26 01:04:49;;;;;;;;;7.83;7.83;;;;;12.26;52.11;99048.00;2019723;28;2733618;-74
2024/03/26 01:06:02;;;;;;;;;7.67;7.17;;;;;12.28;51.93;99051.38;2039679;28;2735689;-75
2024/03/26 01:07:13;;;;;;;;;12.00;6.33;;;;;12.23;51.91;99035.91;1988214;28;3484633;-74
2024/03/26 01:08:24;;;;;;;;;12.67;8.33;;;;;12.26;52.09;99043.59;2033275;28;3497150;-74
2024/03/26 01:09:35;;;;;;;;;10.00;8.67;;;;;12.24;52.07;99036.75;2031995;28;2772243;-74
2024/03/26 01:10:47;;;;;;;;;8.67;6.67;;;;;12.26;51.87;99037.47;2033467;28;2747163;-74
2024/03/26 01:11:57;;;;;;;;;9.67;9.67;;;;;12.26;52.13;99037.47;1986229;28;3490892;-74
2024/03/26 01:13:08;;;;;;;;;10.00;8.00;;;;;12.26;51.99;99040.13;2031596;28;2755474;-74
2024/03/26 01:14:19;;;;;;;;;11.33;10.33;;;;;12.28;52.30;99043.47;2015945;28;3490864;-74
2024/03/26 01:15:30;;;;;;;;;7.00;7.00;;;;;12.24;52.18;99034.13;2023075;28;2746113;-75
2024/03/26 01:16:41;;;;;;;;;6.33;6.33;;;;;12.26;52.33;99030.44;2019748;28;2736756;-74
2024/03/26 01:17:52;;;;;;;;;10.00;6.33;;;;;12.26;52.27;99032.22;2034156;28;2748177;-75
2024/03/26 01:19:05;;;;;;;;;9.33;8.50;;;;;12.27;52.62;99041.81;2019545;28;2740909;-74
2024/03/26 01:20:16;;;;;;;;;10.00;8.67;;;;;12.25;52.54;99031.38;1994309;28;2755623;-75
2024/03/26 01:21:26;;;;;;;;;10.33;8.00;;;;;12.26;52.34;99034.84;2023783;28;2750359;-74
2024/03/26 01:22:38;;;;;;;;;10.33;8.00;;;;;12.26;52.38;99037.47;2016704;28;3471100;-75
2024/03/26 01:23:49;;;;;;;;;7.67;6.33;;;;;12.24;52.24;99031.47;2016252;28;2746120;-74
2024/03/26 01:25:00;;;;;;;;;10.00;8.00;;;;;12.25;52.42;99027.88;2043872;28;1841951;-74
2024/03/26 01:26:10;;;;;;;;;8.67;8.33;;;;;12.26;52.44;99029.56;2016618;28;2738956;-75
2024/03/26 01:27:21;;;;;;;;;5.33;5.33;;;;;12.24;52.56;99023.56;2033717;28;2745533;-75
2024/03/26 01:28:34;;;;;;;;;9.83;8.33;;;;;12.23;52.52;99022.72;2033522;28;2756507;-74
2024/03/26 01:29:47;;;;;;;;;8.67;7.67;;;;;12.23;52.78;99017.47;2007412;28;2730501;-74
2024/03/26 01:31:01;;;;;;;;;9.67;7.83;;;;;12.23;52.70;99017.47;2012152;28;2732593;-75
2024/03/26 01:32:11;;;;;;;;;7.00;5.00;;;;;12.26;52.98;99029.56;1988160;28;2750633;-74
2024/03/26 01:33:22;;;;;;;;;8.33;6.33;;;;;12.25;52.82;99030.50;2026971;28;3466891;-74
2024/03/26 01:34:33;;;;;;;;;7.33;6.67;;;;;12.25;52.95;99030.50;2016114;28;2752359;-74
2024/03/26 01:35:54;;;;;;;;;7.67;7.67;;;;;12.22;53.29;99034.19;2035709;28;2735663;-74
2024/03/26 01:37:04;;;;;;;;;9.33;8.00;;;;;12.22;53.51;99025.47;1973295;28;3460670;-74
2024/03/26 01:38:15;;;;;;;;;7.67;6.67;;;;;12.20;53.62;99027.38;2009237;28;3449207;-75
2024/03/26 01:39:26;;;;;;;;;10.00;9.00;;;;;12.22;53.73;99030.75;2009724;28;3471109;-75
2024/03/26 01:40:37;;;;;;;;;10.67;7.33;;;;;12.20;54.04;99027.38;2025206;28;2753483;-74
2024/03/26 01:41:48;;;;;;;;;8.33;8.00;;;;;12.21;54.26;99034.31;2042397;28;2732950;-74
2024/03/26 01:42:58;;;;;;;;;13.33;9.00;;;;;12.20;54.26;99030.00;1994591;28;2754544;-74
2024/03/26 01:44:09;;;;;;;;;6.67;6.33;;;;;12.19;53.80;99033.56;2033692;28;2745050;-75
2024/03/26 01:45:23;;;;;;;;;8.00;7.00;;;;;12.18;54.38;99021.34;2036098;28;2728398;-74
2024/03/26 01:46:36;;;;;;;;;11.67;8.33;;;;;12.19;54.39;99031.78;1994056;28;3472488;-74
2024/03/26 01:47:47;;;;;;;;;10.00;6.67;;;;;12.18;54.96;99031.88;2031838;28;1824213;-74
2024/03/26 01:48:59;;;;;;;;;8.50;8.00;;;;;12.17;54.88;99030.22;2018157;28;2724279;-74
2024/03/26 01:50:13;;;;;;;;;7.33;7.33;;;;;12.16;55.71;99026.72;2019784;28;2744033;-74
2024/03/26 01:51:24;;;;;;;;;8.33;8.33;;;;;12.15;55.39;99025.88;2020910;28;1819101;-74
2024/03/26 01:52:36;;;;;;;;;9.00;7.60;;;;;12.12;56.28;99025.22;2006407;28;2736763;-74
2024/03/26 01:53:48;;;;;;;;;11.33;7.33;;;;;12.14;55.96;99023.34;1987800;28;3471078;-74
2024/03/26 01:54:58;;;;;;;;;10.67;7.33;;;;;12.11;56.60;99018.25;2013765;28;3474210;-75
2024/03/26 01:56:11;;;;;;;;;11.33;6.33;;;;;12.10;56.52;99012.13;2033233;28;3481498;-74
2024/03/26 01:57:22;;;;;;;;;9.67;7.33;;;;;12.10;56.69;99017.41;2018609;28;2749226;-74
2024/03/26 01:58:36;;;;;;;;;8.33;7.50;;;;;12.07;57.01;99012.38;2043902;28;2743002;-74
2024/03/26 01:59:51;;;;;;;;;8.83;7.33;;;;;12.06;57.23;99015.94;2018503;28;2744024;-75
2024/03/26 02:01:02;;;;;;;;;11.33;9.00;;;;;12.03;57.71;99008.22;1983485;28;2759720;-74
2024/03/26 02:02:14;;;;;;;;;10.20;8.60;;;;;12.05;57.68;99016.84;2028325;28;2753413;-74
2024/03/26 02:03:27;;;;;;;;;7.33;5.33;;;;;12.01;57.27;99010.13;2033198;28;2742992;-74
2024/03/26 02:04:39;;;;;;;;;9.67;9.33;;;;;12.02;57.54;99017.09;1986054;28;3485713;-74
2024/03/26 02:05:52;;;;;;;;;8.00;6.33;;;;;11.96;57.67;99006.94;2042372;28;2749223;-74
2024/03/26 02:07:05;;;;;;;;;5.83;5.83;;;;;11.98;57.79;99010.31;2018706;28;2747163;-74
2024/03/26 02:08:19;;;;;;;;;9.00;6.17;;;;;11.96;58.04;99006.94;2020223;28;2736744;-74
2024/03/26 02:09:29;;;;;;;;;9.00;8.33;;;;;11.95;57.99;99008.72;2017110;28;3443355;-74
2024/03/26 02:10:40;;;;;;;;;8.00;7.33;;;;;11.92;58.30;99015.06;2033876;28;3447147;-74
2024/03/26 02:11:52;;;;;;;;;9.50;7.00;;;;;11.90;58.45;99008.22;2042652;28;2750271;-74
2024/03/26 02:13:03;;;;;;;;;8.00;6.33;;;;;11.90;58.70;99011.69;2007780;28;2744100;-74
2024/03/26 02:14:16;;;;;;;;;8.00;7.20;;;;;11.88;58.43;99008.31;2027758;28;2740219;-74
2024/03/26 02:15:29;;;;;;;;;7.67;7.17;;;;;11.87;58.90;99011.91;2027830;28;2744406;-74
2024/03/26 02:16:42;;;;;;;;;8.67;7.00;;;;;11.84;58.83;99004.19;2029769;28;2748178;-74
2024/03/26 02:17:53;;;;;;;;;10.67;9.00;;;;;11.85;59.14;99002.41;1985717;28;2761845;-74
2024/03/26 02:19:04;;;;;;;;;8.67;7.33;;;;;11.85;59.58;99005.06;2036209;28;2737793;-74
2024/03/26 02:20:16;;;;;;;;;11.00;11.00;;;;;11.84;58.98;99006.84;2010127;28;3504433;-74
2024/03/26 02:21:26;;;;;;;;;10.67;6.33;;;;;11.80;59.41;99002.72;2006960;28;3466942;-74
2024/03/26 02:22:37;;;;;;;;;9.00;6.67;;;;;11.79;59.62;99003.66;2027914;28;2740917;-74
2024/03/26 02:23:48;;;;;;;;;10.67;7.33;;;;;11.80;59.58;99000.09;2033826;28;3480456;-74
2024/03/26 02:24:59;;;;;;;;;9.67;9.67;;;;;11.77;59.53;98995.88;2032811;28;2766929;-74
2024/03/26 02:26:17;;;;;;;;;11.33;10.00;;;;;11.77;59.77;98992.41;2029939;28;3506573;-74
2024/03/26 02:27:30;;;;;;;;;5.00;3.83;;;;;11.74;60.05;98988.16;2028916;28;2741493;-74
2024/03/26 02:28:41;;;;;;;;;9.00;9.00;;;;;11.74;60.14;98995.22;1993895;28;1821103;-74
2024/03/26 02:29:52;;;;;;;;;10.00;10.00;;;;;11.72;60.17;98987.44;2018030;28;1827427;-74
2024/03/26 02:31:03;;;;;;;;;10.67;9.67;;;;;11.75;60.01;98996.91;2010326;28;3496103;-74
2024/03/26 02:32:14;;;;;;;;;13.00;11.00;;;;;11.72;60.14;98991.84;2034686;28;2788844;-74
2024/03/26 02:33:26;;;;;;;;;15.40;9.80;;;;;11.71;60.23;98988.38;2043256;28;1814363;-74
2024/03/26 02:34:39;;;;;;;;;9.33;8.00;;;;;11.69;60.50;98993.75;2044998;28;2738139;-74
2024/03/26 02:35:49;;;;;;;;;11.00;8.00;;;;;11.66;60.54;98986.03;2014934;28;3473149;-74
2024/03/26 02:37:00;;;;;;;;;10.33;9.00;;;;;11.67;60.58;98990.38;2030446;28;2766939;-74
2024/03/26 02:38:11;;;;;;;;;10.33;8.33;;;;;11.65;60.78;98984.38;2030135;28;2754821;-75
2024/03/26 02:39:22;;;;;;;;;11.00;8.00;;;;;11.66;60.13;98990.47;2027383;28;2762776;-75
2024/03/26 02:40:33;;;;;;;;;9.67;9.67;;;;;11.64;60.66;98990.56;2033257;28;3495018;-75
2024/03/26 02:41:45;;;;;;;;;9.00;8.00;;;;;11.64;60.65;98987.94;2043589;28;2748182;-74
2024/03/26 02:42:56;;;;;;;;;12.00;9.00;;;;;11.67;60.78;98989.53;1981422;28;3492972;-74
2024/03/26 02:44:07;;;;;;;;;11.50;10.75;;;;;11.66;60.91;98985.19;2024061;28;1839912;-74
2024/03/26 02:45:17;;;;;;;;;11.00;9.67;;;;;11.60;61.05;98978.56;2008438;28;3489834;-74
2024/03/26 02:46:28;;;;;;;;;10.00;9.33;;;;;11.62;61.11;98976.69;2026094;28;2752448;-74
2024/03/26 02:47:40;;;;;;;;;8.00;7.67;;;;;11.62;61.25;98975.81;2043990;28;2737804;-74
2024/03/26 02:48:50;;;;;;;;;11.00;10.67;;;;;11.62;61.32;98984.56;1986661;28;3510659;-74
2024/03/26 02:50:01;;;;;;;;;8.67;8.33;;;;;11.62;61.41;98971.41;2042283;28;2751303;-74
2024/03/26 02:51:12;;;;;;;;;10.00;9.00;;;;;11.61;61.43;98974.97;1996591;28;2762769;-74
2024/03/26 02:52:23;;;;;;;;;12.00;9.67;;;;;11.60;61.28;98970.66;2035782;28;3498133;-74
2024/03/26 02:53:34;;;;;;;;;13.00;12.00;;;;;11.61;61.04;98974.97;2004635;28;3511689;-74
2024/03/26 02:54:44;;;;;;;;;12.33;11.00;;;;;11.58;61.39;98967.31;2020182;28;3516421;-74
2024/03/26 02:55:55;;;;;;;;;10.00;10.00;;;;;11.58;61.37;98964.66;2023874;28;2782571;-75
2024/03/26 02:57:06;;;;;;;;;12.33;10.00;;;;;11.61;61.47;98967.06;2034496;28;3515878;-74
2024/03/26 02:58:18;;;;;;;;;10.00;8.67;;;;;11.58;61.61;98959.41;2037997;28;2753413;-74
2024/03/26 02:59:28;;;;;;;;;11.67;9.67;;;;;11.57;61.76;98961.19;2009863;28;1833605;-74
2024/03/26 03:00:39;;;;;;;;;9.67;9.67;;;;;11.61;61.94;98966.22;2007680;28;3484650;-75
2024/03/26 03:01:50;;;;;;;;;11.33;11.33;;;;;11.59;61.38;98958.44;2033519;28;3514821;-75
2024/03/26 03:03:01;;;;;;;;;11.00;7.00;;;;;11.57;61.32;98961.19;2033533;28;3495082;-74
2024/03/26 03:04:12;;;;;;;;;11.33;10.33;;;;;11.60;61.54;98965.41;2027425;28;3508577;-75
2024/03/26 03:05:23;;;;;;;;;13.33;11.67;;;;;11.58;61.78;98959.41;2032474;28;3518251;-75
2024/03/26 03:06:34;;;;;;;;;10.00;10.00;;;;;11.59;61.73;98961.06;2032072;28;2789866;-75
2024/03/26 03:07:45;;;;;;;;;12.00;10.33;;;;;11.61;62.13;98969.72;2030706;28;3510672;-75
2024/03/26 03:08:56;;;;;;;;;13.33;11.00;;;;;11.59;62.20;98964.56;2043554;28;1840906;-74
2024/03/26 03:10:07;;;;;;;;;13.00;12.00;;;;;11.62;62.15;98966.16;1976588;28;2791982;-74
2024/03/26 03:11:18;;;;;;;;;11.33;11.33;;;;;11.60;62.13;98968.03;2007538;28;3512770;-74
2024/03/26 03:12:29;;;;;;;;;12.67;11.00;;;;;11.61;62.39;98972.34;2002350;28;3511708;-74
2024/03/26 03:13:39;;;;;;;;;10.50;9.50;;;;;11.62;62.41;98978.47;2032647;28;2779446;-74
2024/03/26 03:14:50;;;;;;;;;11.00;11.00;;;;;11.62;62.74;98976.69;2034375;28;2790192;-74
2024/03/26 03:16:02;;;;;;;;;11.67;7.67;;;;;11.62;62.70;98976.69;2034624;28;2757554;-74
2024/03/26 03:17:12;;;;;;;;;10.67;9.00;;;;;11.60;62.64;98970.66;1978840;28;3490857;-74
2024/03/26 03:18:23;;;;;;;;;11.67;10.67;;;;;11.59;62.39;98972.44;2039601;28;1841928;-74
2024/03/26 03:19:34;;;;;;;;;12.33;10.67;;;;;11.62;62.62;98976.69;1991635;28;3499209;-75
2024/03/26 03:20:45;;;;;;;;;9.50;9.00;;;;;11.59;62.50;98982.97;2025123;28;2754455;-75
2024/03/26 03:21:56;;;;;;;;;12.00;11.00;;;;;11.59;62.32;98975.09;2010201;28;3514826;-75
2024/03/26 03:23:07;;;;;;;;;11.50;11.50;;;;;11.60;62.60;98978.56;2016896;28;2794532;-74
2024/03/26 03:24:18;;;;;;;;;9.67;9.67;;;;;11.58;62.79;98970.75;2022276;28;3491939;-74
2024/03/26 03:25:29;;;;;;;;;7.33;7.33;;;;;11.58;62.60;98972.56;2026203;28;2744122;-74
2024/03/26 03:26:40;;;;;;;;;11.67;10.00;;;;;11.57;62.81;98976.13;2013803;28;3515966;-74
2024/03/26 03:27:51;;;;;;;;;10.00;9.00;;;;;11.54;62.78;98974.53;2029729;28;2766011;-74
2024/03/26 03:29:02;;;;;;;;;3.33;3.33;;;;;11.54;62.50;98969.28;2038068;28;2741959;-74
2024/03/26 03:30:12;;;;;;;;;13.00;11.33;;;;;11.54;62.42;98973.69;1993912;28;3507578;-74
2024/03/26 03:31:24;;;;;;;;;9.00;9.00;;;;;11.55;62.44;98970.97;2041032;28;2729439;-75
2024/03/26 03:32:35;;;;;;;;;13.25;13.25;;;;;11.53;62.49;98972.03;2026387;28;1840865;-75
2024/03/26 03:33:46;;;;;;;;;14.00;12.00;;;;;11.54;62.65;98968.44;2014721;28;3518035;-75
2024/03/26 03:34:57;;;;;;;;;11.33;9.33;;;;;11.52;62.77;98965.91;2042985;28;1829433;-75
2024/03/26 03:36:08;;;;;;;;;12.67;11.00;;;;;11.51;62.65;98964.22;1991989;28;3512838;-75
2024/03/26 03:37:19;;;;;;;;;11.50;10.50;;;;;11.52;62.56;98970.31;1984987;28;2778464;-75
2024/03/26 03:38:31;;;;;;;;;9.25;7.25;;;;;11.51;62.67;98964.22;2016745;28;1829453;-75
2024/03/26 03:39:41;;;;;;;;;12.00;10.33;;;;;11.52;62.43;98965.91;2005006;28;3511707;-74
2024/03/26 03:40:52;;;;;;;;;10.67;10.33;;;;;11.51;62.89;98966.84;2024183;28;3515859;-74
2024/03/26 03:42:03;;;;;;;;;12.00;10.00;;;;;11.46;62.57;98959.25;2018529;28;3502306;-74
2024/03/26 03:43:14;;;;;;;;;11.00;8.33;;;;;11.46;62.69;98959.25;2026793;28;2759654;-74
2024/03/26 03:44:25;;;;;;;;;13.67;12.67;;;;;11.48;62.72;98967.88;2017164;28;3503377;-75
2024/03/26 03:45:37;;;;;;;;;13.00;10.50;;;;;11.47;62.80;98968.84;2029491;28;1839874;-75
2024/03/26 03:46:48;;;;;;;;;13.25;10.75;;;;;11.46;62.78;98968.94;2015901;28;1846120;-74
2024/03/26 03:48:00;;;;;;;;;12.00;12.00;;;;;11.45;62.88;98965.47;2030054;28;1846149;-74
2024/03/26 03:49:13;;;;;;;;;8.83;8.83;;;;;11.44;62.98;98969.03;2045042;28;2730498;-74
2024/03/26 03:50:23;;;;;;;;;11.67;10.00;;;;;11.44;62.84;98970.81;1991666;28;3508648;-74
2024/03/26 03:51:35;;;;;;;;;8.00;8.00;;;;;11.43;62.82;98969.16;2032044;28;2725343;-75
2024/03/26 03:52:45;;;;;;;;;14.00;11.00;;;;;11.42;63.36;98967.44;1986061;28;3501388;-74
2024/03/26 03:53:56;;;;;;;;;10.67;8.67;;;;;11.42;63.39;98975.34;2028991;28;3485675;-75
2024/03/26 03:55:07;;;;;;;;;8.00;8.00;;;;;11.41;63.27;98971.84;2049619;28;1816929;-75
2024/03/26 03:56:17;;;;;;;;;11.33;11.00;;;;;11.45;63.17;98977.78;1982913;28;3513795;-74
2024/03/26 03:57:28;;;;;;;;;8.33;8.00;;;;;11.42;63.57;98970.06;2032018;28;2733639;-74
2024/03/26 03:58:39;;;;;;;;;10.00;10.00;;;;;11.40;63.62;98964.06;1993882;28;3488821;-75
2024/03/26 03:59:50;;;;;;;;;10.00;9.00;;;;;11.39;63.59;98957.13;2030062;28;2751386;-74
2024/03/26 04:01:01;;;;;;;;;9.67;6.67;;;;;11.40;63.37;98964.94;2026055;28;3471427;-74
2024/03/26 04:02:12;;;;;;;;;9.67;8.67;;;;;11.40;63.53;98964.94;2024019;28;3462728;-74
2024/03/26 04:03:23;;;;;;;;;10.50;10.50;;;;;11.39;63.59;98955.34;2024224;28;2789860;-74
2024/03/26 04:04:34;;;;;;;;;9.00;9.00;;;;;11.37;63.87;98957.22;2017900;28;2477911;-74
2024/03/26 04:05:45;;;;;;;;;8.33;8.33;;;;;11.39;63.21;98960.59;2033327;28;2741915;-74
2024/03/26 04:06:55;;;;;;;;;10.00;10.00;;;;;11.40;63.97;98964.06;1990210;28;3495034;-74
2024/03/26 04:08:09;;;;;;;;;10.00;9.00;;;;;11.36;63.91;98960.78;2035371;28;2741971;-75
2024/03/26 04:09:22;;;;;;;;;9.33;9.17;;;;;11.39;63.69;98959.75;2013475;28;2734144;-74
2024/03/26 04:10:39;;;;;;;;;5.83;5.83;;;;;11.39;63.93;98965.84;2023698;28;2729516;-75
2024/03/26 04:11:51;;;;;;;;;12.00;9.67;;;;;11.38;64.17;98963.34;2013025;28;3495027;-75
2024/03/26 04:13:04;;;;;;;;;8.83;8.67;;;;;11.38;64.06;98958.94;2044845;28;2739848;-75
2024/03/26 04:14:14;;;;;;;;;10.00;10.00;;;;;11.35;63.83;98959.97;2016598;28;3499198;-75
2024/03/26 04:15:25;;;;;;;;;11.00;10.00;;;;;11.35;63.75;98961.75;2033333;28;3499713;-75
2024/03/26 04:16:36;;;;;;;;;8.67;8.33;;;;;11.35;64.18;98959.97;2042514;28;2738814;-75
2024/03/26 04:17:50;;;;;;;;;9.33;9.33;;;;;11.37;64.22;98965.13;2013977;28;2737772;-75
2024/03/26 04:19:01;;;;;;;;;13.33;10.00;;;;;11.35;63.99;98959.97;1992605;28;3505478;-75
2024/03/26 04:20:12;;;;;;;;;9.33;9.33;;;;;11.33;64.10;98955.75;2023659;28;2750422;-75
2024/03/26 04:21:23;;;;;;;;;9.67;8.00;;;;;11.37;64.51;98965.13;2035174;28;2742973;-75
2024/03/26 04:22:36;;;;;;;;;10.00;8.33;;;;;11.34;64.26;98963.53;2020601;28;2759636;-75
2024/03/26 04:23:46;;;;;;;;;11.00;9.00;;;;;11.35;64.17;98959.97;1991928;28;3478368;-75
2024/03/26 04:24:57;;;;;;;;;9.00;9.00;;;;;11.33;64.54;98961.81;2027930;28;3464844;-75
2024/03/26 04:26:10;;;;;;;;;10.00;10.00;;;;;11.35;64.73;98959.13;2018093;28;3482535;-75
2024/03/26 04:27:20;;;;;;;;;13.00;10.67;;;;;11.33;64.48;98955.75;2008329;28;3521108;-74
2024/03/26 04:28:31;;;;;;;;;11.00;10.00;;;;;11.35;64.66;98956.50;2026348;28;3505448;-75
2024/03/26 04:29:42;;;;;;;;;10.67;10.33;;;;;11.36;64.97;98963.41;2047666;28;1848222;-75
2024/03/26 04:30:54;;;;;;;;;10.00;9.33;;;;;11.35;64.63;98961.75;1991099;28;3492968;-75
2024/03/26 04:32:05;;;;;;;;;10.00;7.67;;;;;11.36;64.76;98964.28;2014133;28;2766390;-75
2024/03/26 04:33:17;;;;;;;;;11.00;10.50;;;;;11.35;64.77;98964.38;2024201;28;1842063;-75
2024/03/26 04:34:27;;;;;;;;;9.33;8.33;;;;;11.35;64.96;98961.75;2024030;28;1834079;-75
2024/03/26 04:35:38;;;;;;;;;6.67;6.67;;;;;11.32;64.76;98952.28;2017592;28;2744046;-75
2024/03/26 04:36:51;;;;;;;;;10.00;8.33;;;;;11.35;64.87;98953.84;1995411;28;3464840;-75
2024/03/26 04:38:02;;;;;;;;;9.00;8.33;;;;;11.35;64.84;98954.72;2009611;28;2743053;-75
2024/03/26 04:39:14;;;;;;;;;8.00;7.60;;;;;11.32;64.91;98948.78;2034491;28;2737780;-75
2024/03/26 04:40:28;;;;;;;;;6.83;6.83;;;;;11.35;64.82;98957.34;2013808;28;2737765;-75
2024/03/26 04:41:38;;;;;;;;;10.00;10.00;;;;;11.33;65.11;98951.31;2015982;28;3501313;-75
2024/03/26 04:42:49;;;;;;;;;13.33;10.00;;;;;11.33;64.99;98948.69;2041877;28;1850284;-75
2024/03/26 04:44:02;;;;;;;;;9.67;8.17;;;;;11.35;65.19;98948.59;2009747;28;2747168;-76
2024/03/26 04:45:13;;;;;;;;;8.67;8.33;;;;;11.34;65.51;98953.00;1986697;28;3449246;-75
2024/03/26 04:46:24;;;;;;;;;8.67;8.00;;;;;11.37;65.30;98951.97;2042687;28;2751731;-75
2024/03/26 04:47:34;;;;;;;;;12.33;9.00;;;;;11.38;65.25;98947.56;1993118;28;3491913;-75
2024/03/26 04:48:45;;;;;;;;;6.33;6.33;;;;;11.36;65.13;98951.13;2034110;28;2735687;-75
2024/03/26 04:49:59;;;;;;;;;9.50;7.33;;;;;11.36;65.39;98950.25;2014357;28;2755560;-75
2024/03/26 04:51:09;;;;;;;;;10.00;9.00;;;;;11.38;65.50;98948.41;1992838;28;3464847;-75
2024/03/26 04:52:20;;;;;;;;;13.00;10.67;;;;;11.35;65.46;98945.97;2047505;28;1854439;-75
2024/03/26 04:53:33;;;;;;;;;5.67;4.17;;;;;11.37;65.51;98949.34;2036035;28;2746134;-75
2024/03/26 04:54:44;;;;;;;;;9.00;8.67;;;;;11.37;65.67;98946.72;2011502;28;2746119;-75
2024/03/26 04:55:55;;;;;;;;;7.00;6.67;;;;;11.35;65.78;98938.94;2042970;28;2744041;-76
2024/03/26 04:57:05;;;;;;;;;10.00;9.33;;;;;11.35;65.39;98946.81;1979325;28;2765359;-75
2024/03/26 04:58:16;;;;;;;;;11.33;10.00;;;;;11.38;65.63;98947.56;2024052;28;3506545;-75
2024/03/26 04:59:27;;;;;;;;;12.00;11.33;;;;;11.38;65.57;98943.16;2031029;28;3502380;-75
2024/03/26 05:00:38;;;;;;;;;9.67;9.67;;;;;11.38;65.58;98947.56;2026180;28;3490884;-75
2024/03/26 05:01:50;;;;;;;;;7.50;7.50;;;;;11.38;65.63;98945.78;2027450;28;2737793;-75
2024/03/26 05:03:01;;;;;;;;;11.33;10.00;;;;;11.36;65.56;98943.22;1979992;28;3512114;-76
2024/03/26 05:04:12;;;;;;;;;8.33;8.33;;;;;11.34;65.68;98941.63;2034467;28;2732588;-75
2024/03/26 05:05:24;;;;;;;;;12.50;9.50;;;;;11.37;66.02;98936.19;1999751;28;1848324;-75
2024/03/26 05:06:34;;;;;;;;;13.00;12.50;;;;;11.39;65.90;98942.19;2009695;28;2798196;-75
2024/03/26 05:07:45;;;;;;;;;11.67;10.67;;;;;11.36;65.94;98942.38;2006296;28;3510978;-76
2024/03/26 05:08:56;;;;;;;;;11.67;10.67;;;;;11.38;65.96;98944.94;2033182;28;3514834;-75
2024/03/26 05:10:08;;;;;;;;;12.33;10.33;;;;;11.35;65.91;98945.97;2032489;28;3512809;-75
2024/03/26 05:11:21;;;;;;;;;10.50;9.50;;;;;11.35;65.71;98938.06;2042199;28;2763177;-75
2024/03/26 05:12:31;;;;;;;;;8.00;8.00;;;;;11.35;65.79;98943.34;1995136;28;3442970;-75
2024/03/26 05:13:42;;;;;;;;;9.33;9.33;;;;;11.38;65.97;98943.16;2048142;28;1846175;-75
2024/03/26 05:14:53;;;;;;;;;10.67;8.67;;;;;11.38;66.37;98940.50;1994568;28;2761746;-76
2024/03/26 05:16:04;;;;;;;;;9.00;7.00;;;;;11.36;66.24;98937.97;2040071;28;2747152;-76
2024/03/26 05:17:15;;;;;;;;;9.67;8.67;;;;;11.40;66.33;98943.03;2018037;28;2753371;-76
2024/03/26 05:18:26;;;;;;;;;12.00;10.67;;;;;11.38;66.11;98945.78;2023803;28;3493993;-75
2024/03/26 05:19:37;;;;;;;;;11.67;10.00;;;;;11.38;66.14;98942.28;2031173;28;2776386;-75
2024/03/26 05:20:47;;;;;;;;;12.00;12.00;;;;;11.38;66.17;98937.88;2019777;28;3515247;-74
2024/03/26 05:21:58;;;;;;;;;10.00;9.00;;;;;11.39;66.35;98939.56;2015893;28;3485050;-76
2024/03/26 05:23:09;;;;;;;;;8.00;8.00;;;;;11.36;66.45;98934.47;2041500;28;2746144;-75
2024/03/26 05:24:20;;;;;;;;;9.67;9.00;;;;;11.38;66.28;98937.88;1990265;28;3471070;-76